Time;durP1;ratioP1;P1;durP2;ratioP2;P2;SDS_P1;SDS_P2;PMS_P1;PMS_P2;Temp;Humidity;BMP_temperature;BMP_pressure;BME280_temperature;BME280_humidity;BME280_pressure;Samples;Min_cycle;Max_cycle;Signal;HPM_P1;HPM_P2
2021/06/19 00:00:39;;;;;;;2.27;2.17;;;;;;;16.70;100.00;96758.66;5055229;28;20244;-86
2021/06/19 00:03:07;;;;;;;2.13;2.03;;;;;;;16.69;100.00;96741.06;5055069;28;20194;-86
2021/06/19 00:05:34;;;;;;;3.10;2.63;;;;;;;16.64;100.00;96723.03;5055103;28;20194;-85
2021/06/19 00:08:02;;;;;;;1.87;1.77;;;;;;;16.57;100.00;96699.06;5055056;28;20200;-86
2021/06/19 00:10:29;;;;;;;2.60;2.40;;;;;;;16.58;100.00;96689.28;5054802;28;20209;-85
2021/06/19 00:12:57;;;;;;;1.93;1.83;;;;;;;16.56;100.00;96673.56;5055252;28;20285;-85
2021/06/19 00:15:25;;;;;;;2.03;1.50;;;;;;;16.50;100.00;96655.72;5054811;28;20313;-85
2021/06/19 00:17:55;;;;;;;3.77;2.27;;;;;;;16.52;100.00;96659.03;5055271;28;20562;-85
2021/06/19 00:20:25;;;;;;;2.20;2.10;;;;;;;16.45;100.00;96665.22;5054728;28;20197;-85
2021/06/19 00:22:53;;;;;;;2.23;2.13;;;;;;;16.49;100.00;96663.88;5054740;28;20223;-85
2021/06/19 00:25:23;;;;;;;2.20;1.87;;;;;;;16.50;100.00;96668.97;5054826;28;20282;-85
2021/06/19 00:27:51;;;;;;;2.27;2.17;;;;;;;16.52;100.00;96674.09;5054955;28;20202;-85
2021/06/19 00:30:19;;;;;;;2.70;1.93;;;;;;;16.49;100.00;96671.84;5054508;28;20205;-85
2021/06/19 00:32:47;;;;;;;3.90;2.30;;;;;;;16.48;100.00;96662.22;5054513;28;20201;-85
2021/06/19 00:35:16;;;;;;;2.43;2.27;;;;;;;16.49;100.00;96653.25;5054339;28;20224;-84
2021/06/19 00:37:44;;;;;;;2.90;2.57;;;;;;;16.47;100.00;96657.91;5054455;28;20219;-85
2021/06/19 00:40:13;;;;;;;2.47;2.37;;;;;;;16.56;100.00;96656.81;5054681;28;20225;-85
2021/06/19 00:42:42;;;;;;;3.47;2.70;;;;;;;16.41;100.00;96651.50;5054640;28;20638;-85
2021/06/19 00:45:10;;;;;;;2.40;2.30;;;;;;;16.33;100.00;96647.13;5054545;28;20277;-86
2021/06/19 00:47:39;;;;;;;2.30;2.20;;;;;;;16.33;100.00;96641.03;5054192;28;20244;-85
2021/06/19 00:50:07;;;;;;;2.70;2.50;;;;;;;16.18;100.00;96654.31;5054107;28;20212;-85
2021/06/19 00:52:36;;;;;;;3.17;2.90;;;;;;;16.17;100.00;96644.69;5054212;28;20240;-85
2021/06/19 00:55:03;;;;;;;2.23;2.13;;;;;;;16.07;100.00;96644.13;5052596;28;20290;-85
2021/06/19 00:57:32;;;;;;;2.83;2.30;;;;;;;16.06;100.00;96645.97;5054646;28;20643;-84
2021/06/19 01:00:00;;;;;;;3.90;2.80;;;;;;;16.02;100.00;96649.19;5053892;28;20207;-85
2021/06/19 01:02:28;;;;;;;2.67;2.47;;;;;;;15.97;100.00;96667.44;5054076;28;20209;-85
2021/06/19 01:04:55;;;;;;;3.50;2.73;;;;;;;15.88;100.00;96677.34;5053771;28;20249;-85
2021/06/19 01:07:23;;;;;;;2.70;2.50;;;;;;;15.96;100.00;96684.38;5053792;28;20200;-85
2021/06/19 01:09:52;;;;;;;3.03;2.43;;;;;;;15.85;100.00;96706.84;5054161;28;20200;-85
2021/06/19 01:12:23;;;;;;;3.30;2.57;;;;;;;15.91;100.00;96706.94;5053966;28;20227;-85
2021/06/19 01:14:51;;;;;;;4.43;2.80;;;;;;;15.82;100.00;96731.88;5053728;28;20189;-85
2021/06/19 01:17:19;;;;;;;3.03;2.83;;;;;;;15.83;100.00;96754.75;5053553;28;20228;-84
2021/06/19 01:19:47;;;;;;;3.23;2.80;;;;;;;15.86;100.00;96788.84;5053583;28;20668;-85
2021/06/19 01:22:14;;;;;;;2.70;2.50;;;;;;;15.77;100.00;96797.03;5053645;28;20291;-85
2021/06/19 01:24:45;;;;;;;3.30;2.40;;;;;;;15.78;100.00;96817.25;5053718;28;20232;-84
2021/06/19 01:27:12;;;;;;;3.10;2.90;;;;;;;15.75;100.00;96838.78;5053452;28;20182;-85
2021/06/19 01:29:40;;;;;;;4.60;2.50;;;;;;;15.67;100.00;96850.28;5053450;28;20238;-85
2021/06/19 01:32:07;;;;;;;2.90;2.70;;;;;;;15.56;100.00;96862.06;5053613;28;20710;-85
2021/06/19 01:34:35;;;;;;;2.33;2.23;;;;;;;15.60;100.00;96873.16;5053406;28;20202;-85
2021/06/19 01:37:02;;;;;;;2.77;2.57;;;;;;;15.62;100.00;96885.22;5053264;28;20223;-84
2021/06/19 01:39:29;;;;;;;5.00;2.53;;;;;;;15.55;100.00;96910.78;5053208;28;20233;-85
2021/06/19 01:41:58;;;;;;;2.57;2.37;;;;;;;15.62;100.00;96924.13;5053656;28;20200;-85
2021/06/19 01:44:25;;;;;;;2.57;2.47;;;;;;;15.64;100.00;96924.78;5053214;28;20751;-85
2021/06/19 01:46:53;;;;;;;3.63;2.70;;;;;;;15.61;100.00;96931.25;5053083;28;20592;-85
2021/06/19 01:49:20;;;;;;;3.03;2.73;;;;;;;15.68;100.00;96940.19;5053114;28;20193;-85
2021/06/19 01:51:47;;;;;;;2.67;2.47;;;;;;;15.84;100.00;96946.41;5053193;28;20205;-85
2021/06/19 01:54:15;;;;;;;2.60;2.50;;;;;;;15.88;100.00;96948.53;5053078;28;20201;-84
2021/06/19 01:56:42;;;;;;;3.87;2.30;;;;;;;15.99;100.00;96941.19;5052766;28;20228;-85
2021/06/19 01:59:11;;;;;;;2.83;2.63;;;;;;;16.03;100.00;96934.50;5053003;28;20220;-84
2021/06/19 02:01:38;;;;;;;2.63;2.43;;;;;;;16.02;100.00;96932.88;5053182;28;20285;-85
2021/06/19 02:04:05;;;;;;;2.70;2.50;;;;;;;16.20;100.00;96900.75;5052895;28;20228;-85
2021/06/19 02:06:33;;;;;;;2.97;2.77;;;;;;;16.06;100.00;96889.09;5052421;28;20196;-84
2021/06/19 02:09:08;;;;;;;2.90;2.70;;;;;;;15.99;100.00;96883.66;5053000;28;20254;-85
2021/06/19 02:11:37;;;;;;;3.30;3.10;;;;;;;15.81;100.00;96864.59;5052759;28;20237;-85
2021/06/19 02:14:05;;;;;;;6.77;3.23;;;;;;;15.87;100.00;96863.91;5052935;28;20631;-85
2021/06/19 02:16:34;;;;;;;4.23;2.93;;;;;;;15.81;100.00;96865.41;5052837;28;20220;-86
2021/06/19 02:19:02;;;;;;;5.63;2.57;;;;;;;15.90;100.00;96874.16;5052546;28;20295;-85
2021/06/19 02:21:29;;;;;;;3.43;2.80;;;;;;;15.90;100.00;96882.09;5052568;28;20849;-84
2021/06/19 02:23:56;;;;;;;3.07;2.77;;;;;;;15.95;100.00;96886.84;5052658;28;20201;-85
2021/06/19 02:26:24;;;;;;;3.73;2.80;;;;;;;15.99;100.00;96877.53;5052387;28;20259;-86
2021/06/19 02:28:51;;;;;;;2.53;2.33;;;;;;;16.01;100.00;96870.25;5052480;28;20227;-85
2021/06/19 02:31:20;;;;;;;2.67;2.40;;;;;;;16.02;100.00;96867.41;5052392;28;20236;-85
2021/06/19 02:33:49;;;;;;;2.67;2.43;;;;;;;16.05;100.00;96867.06;5052258;28;20699;-85
2021/06/19 02:36:17;;;;;;;3.27;3.03;;;;;;;16.09;100.00;96848.97;5052147;28;20226;-86
2021/06/19 02:38:45;;;;;;;3.40;3.10;;;;;;;16.07;100.00;96841.19;5052567;28;20270;-86
2021/06/19 02:41:12;;;;;;;4.67;3.53;;;;;;;15.86;100.00;96836.56;5052323;28;20205;-86
2021/06/19 02:43:40;;;;;;;5.07;3.00;;;;;;;15.73;100.00;96846.94;5051800;28;20193;-86
2021/06/19 02:46:07;;;;;;;2.67;2.47;;;;;;;15.67;100.00;96852.94;5071018;28;20206;-86
2021/06/19 02:48:36;;;;;;;3.00;2.80;;;;;;;15.75;100.00;96858.16;5071980;28;20227;-86
2021/06/19 02:51:05;;;;;;;3.30;3.00;;;;;;;15.71;100.00;96872.78;5072308;28;20680;-86
2021/06/19 02:53:33;;;;;;;5.67;2.93;;;;;;;15.74;100.00;96887.50;5071879;28;20206;-86
2021/06/19 02:56:00;;;;;;;3.10;2.63;;;;;;;15.80;100.00;96890.28;5072170;28;20214;-86
2021/06/19 02:58:27;;;;;;;2.80;2.53;;;;;;;15.69;100.00;96898.63;5072022;28;20283;-85
2021/06/19 03:00:54;;;;;;;2.70;2.60;;;;;;;15.65;100.00;96903.41;5072240;28;20247;-85
2021/06/19 03:03:22;;;;;;;3.87;2.60;;;;;;;15.81;100.00;96902.53;5072062;28;20265;-84
2021/06/19 03:05:49;;;;;;;3.00;2.80;;;;;;;15.83;100.00;96904.97;5071587;28;20196;-85
2021/06/19 03:08:17;;;;;;;2.80;2.67;;;;;;;15.86;100.00;96901.97;5071675;28;20198;-85
2021/06/19 03:10:45;;;;;;;2.87;2.67;;;;;;;15.81;100.00;96901.69;5071980;28;20238;-86
2021/06/19 03:13:12;;;;;;;5.67;2.73;;;;;;;15.70;100.00;96902.94;5071672;28;20204;-85
2021/06/19 03:15:40;;;;;;;4.13;2.60;;;;;;;15.61;100.00;96898.63;5071821;28;20715;-86
2021/06/19 03:18:07;;;;;;;6.10;3.47;;;;;;;15.85;100.00;96893.22;5070965;28;20197;-86
2021/06/19 03:20:35;;;;;;;5.40;2.40;;;;;;;15.78;100.00;96894.09;5072145;28;20206;-86
2021/06/19 03:23:03;;;;;;;2.37;2.27;;;;;;;15.72;100.00;96895.63;5071734;28;20232;-86
2021/06/19 03:25:34;;;;;;;2.57;2.37;;;;;;;15.69;100.00;96890.69;5071415;28;20199;-86
2021/06/19 03:28:07;;;;;;;2.80;2.60;;;;;;;15.62;100.00;96887.88;5071437;28;20180;-86
2021/06/19 03:30:37;;;;;;;2.67;2.47;;;;;;;15.66;100.00;96899.00;5072056;28;20233;-86
2021/06/19 03:33:05;;;;;;;3.63;2.37;;;;;;;15.57;100.00;96902.63;5072360;28;20200;-86
2021/06/19 03:35:33;;;;;;;2.93;2.60;;;;;;;15.83;100.00;96900.53;5072157;28;20207;-85
2021/06/19 03:38:00;;;;;;;2.20;2.10;;;;;;;15.85;100.00;96903.81;5070806;28;20231;-86
2021/06/19 03:40:29;;;;;;;2.73;2.53;;;;;;;15.77;100.00;96895.09;5071559;28;20195;-86
2021/06/19 03:42:58;;;;;;;2.83;2.63;;;;;;;15.84;100.00;96896.88;5071679;28;20234;-86
2021/06/19 03:45:26;;;;;;;2.60;2.40;;;;;;;15.82;100.00;96884.78;5071463;28;20197;-86
2021/06/19 03:47:55;;;;;;;4.43;2.90;;;;;;;15.91;100.00;96891.69;5071240;28;20287;-86
2021/06/19 03:50:25;;;;;;;2.60;2.50;;;;;;;15.91;100.00;96889.03;5071369;28;20194;-86
2021/06/19 03:52:53;;;;;;;2.80;2.60;;;;;;;15.92;100.00;96888.03;5071949;28;20387;-87
2021/06/19 03:55:20;;;;;;;3.80;2.63;;;;;;;16.00;100.00;96880.00;5071243;28;20215;-86
2021/06/19 03:57:48;;;;;;;4.10;2.60;;;;;;;16.06;100.00;96867.88;5071971;28;20728;-88
2021/06/19 04:00:19;;;;;;;2.97;2.70;;;;;;;16.13;100.00;96850.25;5071620;28;20289;-86
2021/06/19 04:02:46;;;;;;;2.73;2.50;;;;;;;16.11;100.00;96834.53;5071622;28;20283;-86
2021/06/19 04:05:14;;;;;;;3.43;2.43;;;;;;;16.13;100.00;96827.19;5071135;28;20207;-86
2021/06/19 04:07:43;;;;;;;2.73;2.37;;;;;;;16.10;100.00;96816.13;5071429;28;20253;-86
2021/06/19 04:10:12;;;;;;;2.90;2.70;;;;;;;16.20;100.00;96807.94;5071323;28;20211;-86
2021/06/19 04:12:39;;;;;;;3.10;2.40;;;;;;;16.22;100.00;96805.94;5071308;28;20188;-85
2021/06/19 04:15:08;;;;;;;2.57;2.43;;;;;;;16.28;100.00;96797.22;5071381;28;20204;-86
2021/06/19 04:17:37;;;;;;;2.67;2.47;;;;;;;16.34;100.00;96797.31;5071268;28;20264;-86
2021/06/19 04:20:06;;;;;;;3.90;3.60;;;;;;;16.33;100.00;96795.69;5071446;28;20240;-86
2021/06/19 04:22:33;;;;;;;3.27;2.90;;;;;;;16.38;100.00;96785.38;5071422;28;20200;-86
2021/06/19 04:25:00;;;;;;;4.07;2.87;;;;;;;16.51;100.00;96758.19;5071311;28;20253;-86
2021/06/19 04:27:28;;;;;;;2.80;2.60;;;;;;;16.53;100.00;96732.28;5071588;28;20627;-86
2021/06/19 04:29:55;;;;;;;2.97;2.77;;;;;;;16.61;100.00;96704.84;5074925;28;20631;-86
2021/06/19 04:32:23;;;;;;;4.93;3.03;;;;;;;16.58;100.00;96689.28;5074748;28;20223;-86
2021/06/19 04:34:52;;;;;;;3.30;2.80;;;;;;;16.54;100.00;96686.16;5074368;28;20214;-86
2021/06/19 04:37:20;;;;;;;2.97;2.77;;;;;;;16.60;100.00;96690.75;5074586;28;20231;-86
2021/06/19 04:39:53;;;;;;;2.87;2.67;;;;;;;16.63;100.00;96705.47;5074684;28;20622;-86
2021/06/19 04:42:23;;;;;;;3.77;3.30;;;;;;;16.60;100.00;96722.59;5073068;28;20589;-86
2021/06/19 04:45:03;;;;;;;3.40;2.50;;;;;;;16.64;100.00;96734.47;5054470;28;20189;-85
2021/06/19 04:47:31;;;;;;;3.53;3.13;;;;;;;16.72;100.00;96735.38;5073677;28;20278;-85
2021/06/19 04:50:00;;;;;;;3.50;3.20;;;;;;;16.83;100.00;96733.13;5074336;28;20197;-86
2021/06/19 04:52:31;;;;;;;3.37;2.90;;;;;;;16.83;100.00;96719.00;5073365;28;20325;-86
2021/06/19 04:54:59;;;;;;;3.00;2.80;;;;;;;16.80;100.00;96712.25;5074638;28;20224;-86
2021/06/19 04:57:27;;;;;;;3.40;2.90;;;;;;;16.78;100.00;96702.81;5074293;28;20263;-85
2021/06/19 04:59:54;;;;;;;2.90;2.70;;;;;;;16.78;100.00;96685.06;5074159;28;20197;-86
2021/06/19 05:02:22;;;;;;;3.60;2.90;;;;;;;16.84;100.00;96676.34;5074028;28;20196;-86
2021/06/19 05:04:49;;;;;;;4.23;2.93;;;;;;;16.85;100.00;96666.56;5074058;28;20209;-86
2021/06/19 05:07:18;;;;;;;3.37;2.57;;;;;;;16.85;100.00;96659.41;5074156;28;20218;-85
2021/06/19 05:09:45;;;;;;;3.20;3.00;;;;;;;16.86;100.00;96655.72;5074033;28;20193;-86
2021/06/19 05:12:13;;;;;;;3.90;3.00;;;;;;;16.90;100.00;96652.69;5074023;28;20771;-85
2021/06/19 05:14:40;;;;;;;4.77;3.10;;;;;;;16.97;100.00;96653.59;5073675;28;20239;-86
2021/06/19 05:17:08;;;;;;;3.63;2.70;;;;;;;17.03;100.00;96643.03;5074193;28;20228;-85
2021/06/19 05:19:35;;;;;;;3.20;2.90;;;;;;;17.04;100.00;96638.53;5073815;28;20287;-85
2021/06/19 05:22:02;;;;;;;4.07;3.23;;;;;;;17.07;100.00;96643.47;5074194;28;20587;-86
2021/06/19 05:24:31;;;;;;;3.40;3.10;;;;;;;17.13;100.00;96644.56;5073490;28;20196;-86
2021/06/19 05:26:59;;;;;;;3.37;3.17;;;;;;;17.17;100.00;96633.34;5073907;28;20677;-85
2021/06/19 05:29:26;;;;;;;3.30;3.10;;;;;;;17.17;100.00;96641.31;5073909;28;20602;-86
2021/06/19 05:31:54;;;;;;;3.10;2.90;;;;;;;17.21;100.00;96634.59;5073673;28;20216;-85
2021/06/19 05:34:21;;;;;;;3.40;3.20;;;;;;;17.30;100.00;96635.31;5073398;28;20185;-85
2021/06/19 05:36:48;;;;;;;3.07;2.87;;;;;;;17.28;100.00;96642.63;5073751;28;20641;-85
2021/06/19 05:39:16;;;;;;;3.17;2.97;;;;;;;17.34;100.00;96647.19;5073162;28;20228;-86
2021/06/19 05:41:44;;;;;;;3.43;3.17;;;;;;;17.36;100.00;96637.22;5072942;28;20205;-86
2021/06/19 05:44:12;;;;;;;3.00;2.80;;;;;;;17.41;100.00;96633.97;5073288;28;20255;-86
2021/06/19 05:46:39;;;;;;;5.37;3.30;;;;;;;17.45;100.00;96643.19;5073181;28;20747;-86
2021/06/19 05:49:07;;;;;;;3.40;3.00;;;;;;;17.56;100.00;96647.97;5073147;28;20185;-86
2021/06/19 05:51:35;;;;;;;4.43;2.90;;;;;;;17.57;100.00;96654.94;5072997;28;20283;-86
2021/06/19 05:54:02;;;;;;;3.17;2.70;;;;;;;17.56;100.00;96661.25;5073115;28;20258;-86
2021/06/19 05:56:30;;;;;;;3.10;2.90;;;;;;;17.56;100.00;96670.06;5073496;28;20286;-86
2021/06/19 05:58:59;;;;;;;2.63;2.50;;;;;;;17.65;100.00;96672.59;5073308;28;20197;-85
2021/06/19 06:01:27;;;;;;;3.60;3.30;;;;;;;17.56;100.00;96687.84;5072815;28;20198;-86
2021/06/19 06:03:54;;;;;;;2.80;2.60;;;;;;;17.56;100.00;96679.88;5072911;28;20208;-85
2021/06/19 06:06:22;;;;;;;3.07;2.63;;;;;;;17.56;100.00;96685.19;5073397;28;20236;-85
2021/06/19 06:08:49;;;;;;;4.53;2.87;;;;;;;17.49;100.00;96693.13;5073123;28;20599;-86
2021/06/19 06:11:17;;;;;;;6.10;3.23;;;;;;;17.46;100.00;96698.00;5072700;28;20283;-86
2021/06/19 06:13:44;;;;;;;3.23;2.93;;;;;;;17.41;100.00;96695.06;5072705;28;20200;-86
2021/06/19 06:16:13;;;;;;;3.57;3.27;;;;;;;17.40;100.00;96699.56;5073275;28;20504;-86
2021/06/19 06:18:40;;;;;;;3.33;3.13;;;;;;;17.45;100.00;96709.63;5072513;28;20282;-87
2021/06/19 06:21:08;;;;;;;6.00;3.40;;;;;;;17.49;100.00;96716.19;5073026;28;20197;-87
2021/06/19 06:23:36;;;;;;;3.50;3.20;;;;;;;17.42;100.00;96720.63;5072677;28;20199;-87
2021/06/19 06:26:03;;;;;;;5.37;3.17;;;;;;;17.43;100.00;96727.59;5072900;28;20670;-86
2021/06/19 06:28:31;;;;;;;3.10;2.90;;;;;;;17.35;100.00;96725.88;5072614;28;20243;-86
2021/06/19 06:30:59;;;;;;;3.23;3.03;;;;;;;17.28;100.00;96728.50;5072754;28;20570;-86
2021/06/19 06:33:28;;;;;;;2.73;2.53;;;;;;;17.40;100.00;96731.47;5072630;28;20262;-87
2021/06/19 06:35:56;;;;;;;3.07;2.87;;;;;;;17.41;100.00;96725.13;5072835;28;20201;-87
2021/06/19 06:38:25;;;;;;;3.30;3.10;;;;;;;17.51;100.00;96720.31;5072326;28;20228;-87
2021/06/19 06:40:53;;;;;;;2.87;2.60;;;;;;;17.50;100.00;96726.66;5072880;28;20197;-87
2021/06/19 06:43:20;;;;;;;3.67;3.40;;;;;;;17.51;100.00;96730.94;5072910;28;20205;-87
2021/06/19 06:45:47;;;;;;;4.47;4.17;;;;;;;17.47;100.00;96728.88;5072856;28;20629;-88
2021/06/19 06:48:15;;;;;;;3.90;2.40;;;;;;;17.53;100.00;96728.09;5072557;28;20775;-88
2021/06/19 06:50:44;;;;;;;5.10;3.03;;;;;;;17.63;100.00;96728.59;5072911;28;20284;-88
2021/06/19 06:53:11;;;;;;;3.27;2.87;;;;;;;17.71;100.00;96725.81;5072451;28;20221;-88
2021/06/19 06:55:39;;;;;;;3.40;3.20;;;;;;;18.08;100.00;96720.34;5072729;28;20715;-88
2021/06/19 06:58:06;;;;;;;3.53;3.23;;;;;;;18.31;100.00;96731.56;5072813;28;20220;-88
2021/06/19 07:00:33;;;;;;;4.20;3.47;;;;;;;18.58;100.00;96729.88;5072852;28;20284;-88
2021/06/19 07:03:01;;;;;;;4.07;3.10;;;;;;;18.72;100.00;96718.28;5073008;28;20660;-87
2021/06/19 07:05:28;;;;;;;3.60;3.40;;;;;;;18.69;100.00;96723.16;5072097;28;20208;-87
2021/06/19 07:07:57;;;;;;;4.20;3.60;;;;;;;18.67;100.00;96718.03;5072297;28;20201;-87
2021/06/19 07:10:24;;;;;;;3.60;3.30;;;;;;;18.56;100.00;96717.78;5072614;28;20231;-87
2021/06/19 07:12:52;;;;;;;3.60;3.30;;;;;;;18.60;100.00;96716.34;5072393;28;20284;-87
2021/06/19 07:15:20;;;;;;;3.80;3.60;;;;;;;18.63;100.00;96723.94;5071988;28;20196;-87
2021/06/19 07:17:48;;;;;;;3.73;3.43;;;;;;;18.50;100.00;96725.53;5072371;28;20221;-87
2021/06/19 07:20:16;;;;;;;3.37;3.17;;;;;;;18.47;100.00;96727.78;5072338;28;20662;-87
2021/06/19 07:22:44;;;;;;;3.10;2.90;;;;;;;18.50;100.00;96724.72;5072311;28;20283;-86
2021/06/19 07:25:14;;;;;;;3.33;3.13;;;;;;;18.47;100.00;96712.63;5071909;28;20193;-87
2021/06/19 07:27:42;;;;;;;3.90;3.60;;;;;;;18.32;100.00;96709.25;5072324;28;20631;-86
2021/06/19 07:30:11;;;;;;;4.23;3.70;;;;;;;18.39;100.00;96711.94;5072233;28;20635;-87
2021/06/19 07:32:39;;;;;;;3.40;3.20;;;;;;;18.40;100.00;96697.66;5072209;28;20625;-87
2021/06/19 07:35:08;;;;;;;3.27;3.07;;;;;;;18.28;100.00;96700.84;5071941;28;20665;-87
2021/06/19 07:37:35;;;;;;;4.33;3.20;;;;;;;18.28;100.00;96700.84;5072337;28;20270;-87
2021/06/19 07:40:04;;;;;;;5.47;2.43;;;;;;;18.25;100.00;96695.94;5071832;28;20221;-87
2021/06/19 07:42:35;;;;;;;2.97;2.73;;;;;;;18.29;100.00;96702.50;5072158;28;20201;-86
2021/06/19 07:45:03;;;;;;;2.67;2.47;;;;;;;18.17;100.00;96701.41;5071810;28;20216;-86
2021/06/19 07:47:30;;;;;;;2.70;2.10;;;;;;;18.11;100.00;96704.84;5071479;28;20229;-87
2021/06/19 07:49:57;;;;;;;2.00;1.90;;;;;;;18.16;100.00;96702.44;5071822;28;20200;-87
2021/06/19 07:52:25;;;;;;;1.60;1.50;;;;;;;18.13;100.00;96704.66;5071770;28;20232;-87
2021/06/19 07:54:52;;;;;;;2.30;1.30;;;;;;;18.05;100.00;96713.63;5071605;28;20197;-88
2021/06/19 07:57:20;;;;;;;3.60;1.80;;;;;;;18.01;100.00;96709.69;5071812;28;20193;-87
2021/06/19 07:59:48;;;;;;;1.90;1.70;;;;;;;18.10;100.00;96713.03;5071697;28;20193;-86
2021/06/19 08:02:17;;;;;;;1.63;1.50;;;;;;;18.11;100.00;96714.66;5071512;28;20201;-88
2021/06/19 08:04:44;;;;;;;1.67;1.57;;;;;;;18.11;100.00;96718.13;5075609;28;20196;-87
2021/06/19 08:07:12;;;;;;;1.97;1.87;;;;;;;18.12;100.00;96714.47;5076079;28;20201;-88
2021/06/19 08:09:39;;;;;;;1.93;1.83;;;;;;;18.20;100.00;96716.97;5076015;28;20197;-87
2021/06/19 08:12:08;;;;;;;2.83;2.23;;;;;;;18.27;100.00;96717.84;5075863;28;20733;-88
2021/06/19 08:14:35;;;;;;;1.73;1.63;;;;;;;18.27;100.00;96714.34;5075792;28;20223;-87
2021/06/19 08:17:08;;;;;;;1.70;1.60;;;;;;;18.42;100.00;96722.22;5075727;28;20220;-87
2021/06/19 08:19:36;;;;;;;2.53;2.33;;;;;;;18.41;100.00;96736.53;5075520;28;20212;-87
2021/06/19 08:22:05;;;;;;;1.80;1.70;;;;;;;18.31;100.00;96731.56;5075324;28;20279;-88
2021/06/19 08:24:32;;;;;;;1.77;1.67;;;;;;;18.33;100.00;96734.88;5075270;28;20197;-87
2021/06/19 08:26:59;;;;;;;1.60;1.50;;;;;;;18.47;100.00;96730.44;5075560;28;20258;-87
2021/06/19 08:29:27;;;;;;;1.70;1.50;;;;;;;18.50;100.00;96730.88;5075424;28;20232;-88
2021/06/19 08:31:55;;;;;;;1.87;1.77;;;;;;;18.61;100.00;96731.31;5075669;28;20205;-88
2021/06/19 08:34:23;;;;;;;1.90;1.80;;;;;;;18.75;100.00;96739.19;5075376;28;20228;-88
2021/06/19 08:36:51;;;;;;;1.87;1.77;;;;;;;18.72;100.00;96765.41;5075347;28;20194;-88
2021/06/19 08:39:18;;;;;;;1.83;1.70;;;;;;;18.82;100.00;96757.06;5075397;28;20220;-88
2021/06/19 08:41:48;;;;;;;1.80;1.70;;;;;;;18.79;100.00;96758.25;5075067;28;20193;-88
2021/06/19 08:50:17;;;;;;;1.47;1.37;;;;;;;18.72;100.00;96736.13;5073478;28;20204;-87
2021/06/19 08:52:45;;;;;;;1.60;1.50;;;;;;;18.64;100.00;96742.41;5075114;28;20236;-87
2021/06/19 08:55:15;;;;;;;1.37;1.27;;;;;;;18.67;100.00;96739.34;5074754;28;20259;-87
2021/06/19 08:57:43;;;;;;;1.73;1.20;;;;;;;18.64;100.00;96742.41;5074576;28;20197;-87
2021/06/19 09:00:12;;;;;;;1.40;1.30;;;;;;;18.73;100.00;96743.88;5074394;28;20193;-87
2021/06/19 09:02:39;;;;;;;0.90;0.90;;;;;;;18.62;100.00;96747.09;5074465;28;20246;-87
2021/06/19 09:05:09;;;;;;;0.50;0.50;;;;;;;18.53;100.00;96754.44;5074685;28;20192;-87
2021/06/19 09:07:43;;;;;;;0.80;0.80;;;;;;;18.48;100.00;96753.38;5074759;28;20233;-86
2021/06/19 09:10:24;;;;;;;0.40;0.40;;;;;;;18.48;100.00;96748.03;5074625;28;20182;-87
2021/06/19 09:13:06;;;;;;;0.73;0.73;;;;;;;18.57;100.00;96751.38;5074050;28;20251;-87
2021/06/19 09:15:36;;;;;;;0.80;0.80;;;;;;;18.65;100.00;96741.38;5073466;28;20224;-87
2021/06/19 09:18:06;;;;;;;0.70;0.70;;;;;;;18.85;100.00;96740.69;5074677;28;20231;-87
2021/06/19 09:20:38;;;;;;;0.63;0.63;;;;;;;18.98;100.00;96728.22;5074504;28;20277;-88
2021/06/19 09:23:09;;;;;;;0.50;0.50;;;;;;;19.01;100.00;96730.47;5074492;28;20197;-87
2021/06/19 09:25:36;;;;;;;0.60;0.60;;;;;;;19.14;100.00;96728.88;5074255;28;20185;-88
2021/06/19 09:28:07;;;;;;;1.70;0.53;;;;;;;19.30;100.00;96722.38;5074276;28;20232;-87
2021/06/19 09:30:35;;;;;;;0.40;0.40;;;;;;;19.24;100.00;96711.47;5074028;28;20192;-86
2021/06/19 09:33:05;;;;;;;0.53;0.53;;;;;;;19.14;100.00;96705.72;5073750;28;20194;-85
2021/06/19 09:35:33;;;;;;;0.87;0.30;;;;;;;19.20;100.00;96710.25;5073914;28;20201;-86
2021/06/19 09:38:03;;;;;;;0.40;0.40;;;;;;;19.53;100.00;96697.97;5073571;28;20225;-86
2021/06/19 09:40:34;;;;;;;0.73;0.30;;;;;;;19.65;100.00;96691.88;5073160;28;20200;-86
2021/06/19 09:43:24;;;;;;;0.40;0.40;;;;;;;19.75;100.00;96691.47;5073990;28;20658;-86
2021/06/19 09:46:01;;;;;;;0.60;0.43;;;;;;;19.85;100.00;96696.38;5069496;28;20201;-86
2021/06/19 09:48:30;;;;;;;0.30;0.30;;;;;;;19.89;100.00;96700.28;5073018;28;20232;-85
2021/06/19 09:51:11;;;;;;;0.50;0.50;;;;;;;20.27;100.00;96705.75;5073244;28;20247;-85
2021/06/19 09:53:39;;;;;;;0.30;0.30;;;;;;;20.47;100.00;96720.88;5073114;28;20197;-85
2021/06/19 09:56:09;;;;;;;0.40;0.40;;;;;;;20.97;100.00;96729.16;5072938;28;20193;-85
2021/06/19 09:58:44;;;;;;;0.80;0.30;;;;;;;20.85;100.00;96753.88;5072882;28;20271;-84
2021/06/19 10:01:12;;;;;;;1.80;0.47;;;;;;;20.88;100.00;96765.97;5073410;28;20193;-85
2021/06/19 10:03:58;;;;;;;2.53;0.60;;;;;;;20.45;100.00;96774.50;5072910;28;20680;-85
2021/06/19 10:06:28;;;;;;;0.30;0.30;;;;;;;20.33;100.00;96797.50;5072968;28;20200;-85
2021/06/19 10:08:57;;;;;;;0.40;0.40;;;;;;;20.31;100.00;96808.41;5072772;28;20201;-85
2021/06/19 10:11:28;;;;;;;0.90;0.47;;;;;;;20.80;100.00;96822.31;5072929;28;20225;-86
2021/06/19 10:13:56;;;;;;;0.77;0.77;;;;;;;21.11;100.00;96846.47;5072820;28;20188;-86
2021/06/19 10:16:25;;;;;;;0.53;0.53;;;;;;;20.57;100.00;96836.94;5072907;28;20229;-85
2021/06/19 10:18:53;;;;;;;0.40;0.40;;;;;;;20.75;100.00;96846.16;5072586;28;20217;-86
2021/06/19 10:21:22;;;;;;;0.70;0.70;;;;;;;20.71;100.00;96835.06;5072747;28;20236;-85
2021/06/19 10:23:49;;;;;;;0.60;0.60;;;;;;;20.93;100.00;96853.53;5072253;28;20211;-86
2021/06/19 10:26:21;;;;;;;0.70;0.70;;;;;;;21.19;100.00;96853.44;5072660;28;20243;-86
2021/06/19 10:28:53;;;;;;;1.77;0.70;;;;;;;21.30;100.00;96852.81;5072888;28;20188;-86
2021/06/19 10:31:21;;;;;;;0.73;0.67;;;;;;;21.04;100.00;96858.22;5072642;28;20196;-86
2021/06/19 10:33:48;;;;;;;1.93;0.70;;;;;;;20.92;100.00;96867.91;5072273;28;20194;-86
2021/06/19 10:36:17;;;;;;;0.80;0.80;;;;;;;21.01;100.00;96872.81;5072486;28;20204;-86
2021/06/19 10:38:50;;;;;;;2.53;0.60;;;;;;;21.38;100.00;96861.66;5072586;28;20221;-86
2021/06/19 10:41:19;;;;;;;0.40;0.40;;;;;;;21.57;100.00;96861.53;5072606;28;20225;-86
2021/06/19 10:43:48;;;;;;;0.50;0.50;;;;;;;21.39;100.00;96855.25;5072053;28;20258;-86
2021/06/19 10:46:35;;;;;;;0.60;0.60;;;;;;;21.04;100.00;96864.38;5072654;28;20279;-87
2021/06/19 10:49:06;;;;;;;0.50;0.50;;;;;;;21.00;100.00;96868.53;5071772;28;20290;-86
2021/06/19 10:51:34;;;;;;;1.73;0.50;;;;;;;21.21;100.00;96870.09;5072489;28;20204;-86
2021/06/19 10:54:22;;;;;;;0.70;0.50;;;;;;;21.27;100.00;96852.41;5072026;28;20258;-86
2021/06/19 10:56:52;;;;;;;0.60;0.60;;;;;;;21.57;100.00;96860.72;5067944;28;20228;-86
2021/06/19 10:59:21;;;;;;;3.80;0.97;;;;;;;21.94;100.00;96860.94;5072143;28;20223;-87
2021/06/19 11:01:51;;;;;;;0.70;0.70;;;;;;;21.64;100.00;96845.44;5072208;28;20387;-87
2021/06/19 11:04:51;;;;;;;0.60;0.60;;;;;;;21.47;100.00;96842.44;5072073;28;20197;-87
2021/06/19 11:08:06;;;;;;;0.70;0.70;;;;;;;22.39;100.00;96868.88;5030531;28;20191;-86
2021/06/19 11:10:55;;;;;;;0.70;0.70;;;;;;;22.43;100.00;96814.63;4985007;28;20194;-87
2021/06/19 11:13:44;;;;;;;0.53;0.53;;;;;;;22.79;100.00;96802.31;5027225;28;20199;-86
2021/06/19 11:16:53;;;;;;;0.60;0.60;;;;;;;22.92;100.00;96778.09;5023976;28;20206;-86
2021/06/19 11:19:47;;;;;;;2.10;0.70;;;;;;;23.12;100.00;96760.94;5029950;28;20254;-87
2021/06/19 11:22:37;;;;;;;0.87;0.87;;;;;;;22.88;100.00;96749.25;5029967;28;20218;-87
2021/06/19 11:25:20;;;;;;;0.70;0.70;;;;;;;22.76;100.00;96738.47;5029894;28;20209;-87
2021/06/19 11:27:49;;;;;;;0.80;0.80;;;;;;;22.53;100.00;96728.41;5030353;28;20289;-86
2021/06/19 11:30:45;;;;;;;2.83;1.17;;;;;;;22.23;100.00;96745.19;5029859;28;20202;-87
2021/06/19 11:33:44;;;;;;;0.77;0.77;;;;;;;22.21;100.00;96755.31;5029894;28;20191;-87
2021/06/19 11:36:41;;;;;;;2.03;1.93;;;;;;;22.57;100.00;96736.84;5030024;28;20218;-86
2021/06/19 11:39:11;;;;;;;1.00;1.00;;;;;;;22.76;100.00;96719.72;5068872;28;20225;-86
2021/06/19 11:41:42;;;;;;;1.03;1.03;;;;;;;23.09;100.00;96732.72;5075889;28;20268;-86